createdAt,value
2022-08-20T00:03:16.432Z,21.04
2022-08-20T00:08:21.042Z,20.98
2022-08-20T00:13:27.706Z,21.12
2022-08-20T00:18:30.379Z,21.04
2022-08-20T00:23:34.405Z,21.05
2022-08-20T00:28:37.434Z,21.20
2022-08-20T00:33:40.649Z,21.12
2022-08-20T00:38:46.910Z,21.08
2022-08-20T00:43:51.805Z,20.89
2022-08-20T00:48:56.413Z,20.93
2022-08-20T00:54:05.470Z,20.92
2022-08-20T00:59:11.904Z,20.92
2022-08-20T01:04:14.378Z,20.81
2022-08-20T01:09:18.420Z,20.86
2022-08-20T01:14:45.848Z,20.92
2022-08-20T01:19:50.462Z,20.89
2022-08-20T01:25:00.207Z,20.76
2022-08-20T01:30:06.225Z,20.75
2022-08-20T01:35:11.179Z,20.88
2022-08-20T01:40:15.668Z,20.95
2022-08-20T01:45:19.744Z,20.90
2022-08-20T01:50:27.334Z,20.86
2022-08-20T01:55:29.999Z,20.78
2022-08-20T02:00:35.579Z,20.82
2022-08-20T02:05:38.274Z,20.69
2022-08-20T02:10:41.429Z,20.75
2022-08-20T02:15:45.454Z,20.66
2022-08-20T02:20:49.594Z,20.79
2022-08-20T02:25:52.298Z,20.45
2022-08-20T02:30:56.384Z,20.34
2022-08-20T02:35:59.021Z,20.16
2022-08-20T02:41:01.758Z,19.98
2022-08-20T02:46:06.932Z,20.01
2022-08-20T02:51:10.098Z,19.84
2022-08-20T02:56:12.922Z,19.78
2022-08-20T03:01:18.401Z,19.73
2022-08-20T03:06:21.998Z,19.75
2022-08-20T03:11:24.623Z,19.86
2022-08-20T03:16:28.633Z,19.89
2022-08-20T03:21:32.378Z,20.01
2022-08-20T03:26:35.252Z,20.13
2022-08-20T03:31:39.437Z,20.17
2022-08-20T03:36:42.724Z,20.18
2022-08-20T03:41:45.405Z,20.20
2022-08-20T03:46:49.530Z,20.14
2022-08-20T03:51:57.483Z,20.16
2022-08-20T03:57:02.197Z,19.97
2022-08-20T04:02:06.477Z,19.94
2022-08-20T04:07:12.506Z,19.87
2022-08-20T04:12:15.233Z,19.85
2022-08-20T04:17:20.928Z,19.74
2022-08-20T04:22:25.285Z,19.68
2022-08-20T04:27:27.975Z,19.48
2022-08-20T04:32:32.530Z,19.76
2022-08-20T04:37:35.302Z,19.84
2022-08-20T04:42:39.162Z,19.87
2022-08-20T04:47:43.243Z,19.80
2022-08-20T04:52:47.684Z,19.83
2022-08-20T04:57:50.334Z,19.95
2022-08-20T05:02:54.364Z,19.78
2022-08-20T05:07:58.300Z,19.71
2022-08-20T05:13:01.155Z,19.84
2022-08-20T05:18:07.714Z,19.70
2022-08-20T05:23:12.661Z,19.55
2022-08-20T05:28:19.385Z,19.50
2022-08-20T05:33:23.926Z,19.54
2022-08-20T05:38:28.983Z,19.80
2022-08-20T05:43:33.655Z,19.81
2022-08-20T05:48:37.642Z,19.93
2022-08-20T05:53:41.578Z,19.94
2022-08-20T05:58:44.249Z,19.92
2022-08-20T06:04:05.718Z,19.93
2022-08-20T06:09:08.476Z,19.88
2022-08-20T06:14:11.519Z,19.88
2022-08-20T06:19:15.523Z,19.96
2022-08-20T06:24:27.787Z,20.16
2022-08-20T06:29:33.182Z,20.42
2022-08-20T06:34:37.559Z,20.50
2022-08-20T06:39:53.050Z,20.20
2022-08-20T06:44:56.765Z,20.32
2022-08-20T06:50:00.801Z,20.19
2022-08-20T06:55:03.474Z,20.17
2022-08-20T07:00:09.293Z,20.10
2022-08-20T07:05:13.376Z,19.94
2022-08-20T07:10:16.959Z,19.54
2022-08-20T07:15:21.855Z,19.80
2022-08-20T07:20:26.498Z,19.91
2022-08-20T07:25:30.412Z,19.95
2022-08-20T07:30:56.420Z,20.19
2022-08-20T07:36:03.667Z,20.18
2022-08-20T07:41:09.859Z,20.43
2022-08-20T07:46:13.522Z,20.73
2022-08-20T07:51:19.167Z,21.06
2022-08-20T07:56:24.536Z,20.54
2022-08-20T08:01:30.387Z,20.88
2022-08-20T08:06:34.501Z,20.66
2022-08-20T08:11:39.502Z,20.66
2022-08-20T08:16:45.560Z,20.94
2022-08-20T08:21:50.230Z,20.36
2022-08-20T08:26:52.895Z,20.75
2022-08-20T08:31:55.638Z,20.85
2022-08-20T08:37:02.834Z,21.07
2022-08-20T08:42:20.432Z,21.03
2022-08-20T08:47:27.151Z,21.29
2022-08-20T08:52:33.206Z,21.57
2022-08-20T08:57:35.953Z,20.96
2022-08-20T09:02:42.340Z,20.99
2022-08-20T09:07:47.262Z,20.95
2022-08-20T09:12:49.990Z,21.07
2022-08-20T09:17:54.789Z,21.21
2022-08-20T09:23:00.427Z,21.04
2022-08-20T09:28:03.275Z,20.70
2022-08-20T09:33:06.742Z,20.93
2022-08-20T09:38:10.758Z,20.73
2022-08-20T09:43:13.910Z,20.60
2022-08-20T09:48:16.705Z,20.60
2022-08-20T09:53:21.712Z,20.54
2022-08-20T09:58:35.263Z,20.75
2022-08-20T10:03:41.835Z,20.95
2022-08-20T10:08:46.090Z,21.10
2022-08-20T10:13:48.755Z,21.53
2022-08-20T10:18:51.406Z,21.58
2022-08-20T10:23:55.418Z,21.80
2022-08-20T10:28:58.149Z,21.83
2022-08-20T10:34:00.846Z,22.70
2022-08-20T10:39:05.150Z,22.35
2022-08-20T10:44:08.505Z,21.90
2022-08-20T10:49:11.356Z,21.61
2022-08-20T10:54:15.462Z,21.61
2022-08-20T10:59:19.749Z,21.63
2022-08-20T11:04:22.547Z,21.79
2022-08-20T11:09:26.845Z,22.74
2022-08-20T11:14:29.718Z,23.10
2022-08-20T11:19:32.490Z,23.10
2022-08-20T11:24:36.956Z,23.23
2022-08-20T11:29:39.889Z,22.93
2022-08-20T11:34:45.300Z,23.89
2022-08-20T11:39:49.522Z,23.54
2022-08-20T11:44:52.385Z,23.56
2022-08-20T11:49:59.468Z,23.82
2022-08-20T11:55:05.801Z,23.46
2022-08-20T12:00:14.636Z,24.34
2022-08-20T12:05:17.293Z,24.24
2022-08-20T12:10:23.030Z,23.90
2022-08-20T12:15:26.765Z,23.28
2022-08-20T12:20:29.565Z,24.88
2022-08-20T12:25:33.739Z,24.69
2022-08-20T12:30:36.640Z,24.38
2022-08-20T12:35:39.303Z,23.91
2022-08-20T12:40:43.355Z,23.56
2022-08-20T12:45:46.322Z,23.11
2022-08-20T12:50:49.982Z,22.94
2022-08-20T12:55:54.055Z,22.80
2022-08-20T13:00:56.749Z,22.88
2022-08-20T13:06:01.976Z,23.06
2022-08-20T13:11:06.142Z,23.26
2022-08-20T13:16:08.789Z,23.41
2022-08-20T13:21:11.471Z,23.56
2022-08-20T13:26:15.543Z,23.83
2022-08-20T13:31:18.986Z,24.31
2022-08-20T13:36:23.325Z,24.69
2022-08-20T13:41:27.655Z,24.01
2022-08-20T13:46:30.596Z,23.60
2022-08-20T13:51:33.289Z,21.97
2022-08-20T13:56:37.373Z,21.63
2022-08-20T14:01:40.498Z,20.98
2022-08-20T14:06:43.291Z,20.84
2022-08-20T14:11:47.419Z,21.02
2022-08-20T14:16:50.086Z,20.93
2022-08-20T14:21:52.869Z,21.71
2022-08-20T14:26:56.981Z,21.62
2022-08-20T14:31:59.736Z,21.85
2022-08-20T14:37:12.138Z,22.39
2022-08-20T14:42:16.840Z,23.07
2022-08-20T14:47:20.742Z,22.52
2022-08-20T14:52:27.653Z,22.65
2022-08-20T14:57:32.641Z,22.88
2022-08-20T15:02:35.491Z,22.60
2022-08-20T15:07:41.495Z,22.70
2022-08-20T15:12:46.033Z,22.41
2022-08-20T15:17:50.972Z,22.69
2022-08-20T15:22:54.230Z,22.93
2022-08-20T15:28:01.619Z,23.16
2022-08-20T15:33:04.891Z,22.56
2022-08-20T15:38:08.849Z,23.04
2022-08-20T15:43:12.885Z,22.86
2022-08-20T15:48:18.687Z,22.87
2022-08-20T15:53:27.213Z,22.79
2022-08-20T15:58:37.538Z,22.77
2022-08-20T16:03:55.397Z,23.08
2022-08-20T16:09:08.361Z,22.93
2022-08-20T16:14:16.632Z,22.91
2022-08-20T16:19:22.843Z,23.07
2022-08-20T16:24:25.376Z,23.10
2022-08-20T16:29:38.703Z,22.72
2022-08-20T16:34:44.107Z,22.74
2022-08-20T16:39:51.250Z,23.18
2022-08-20T16:44:56.269Z,23.01
2022-08-20T16:50:02.038Z,22.61
2022-08-20T16:55:05.263Z,22.44
2022-08-20T17:00:13.993Z,22.28
2022-08-20T17:05:16.814Z,22.72
2022-08-20T17:10:24.833Z,22.69
2022-08-20T17:15:31.955Z,22.58
2022-08-20T17:20:44.714Z,22.77
2022-08-20T17:25:56.835Z,22.64
2022-08-20T17:31:00.833Z,22.59
2022-08-20T17:36:10.208Z,22.45
2022-08-20T17:41:18.011Z,22.46
2022-08-20T17:46:23.219Z,22.46
2022-08-20T17:51:29.403Z,22.52
2022-08-20T17:56:35.553Z,22.38
2022-08-20T18:01:39.653Z,22.42
2022-08-20T18:06:45.970Z,22.33
2022-08-20T18:11:50.002Z,22.14
2022-08-20T18:17:12.381Z,22.11
2022-08-20T18:22:17.745Z,21.95
2022-08-20T18:27:22.861Z,22.22
2022-08-20T18:32:31.974Z,22.03
2022-08-20T18:37:35.084Z,21.87
2022-08-20T18:42:39.235Z,21.97
2022-08-20T18:47:45.719Z,21.79
2022-08-20T18:52:50.920Z,21.68
2022-08-20T18:57:55.442Z,21.47
2022-08-20T19:03:03.768Z,21.35
2022-08-20T19:08:07.768Z,21.29
2022-08-20T19:13:46.039Z,21.23
2022-08-20T19:18:52.566Z,21.10
2022-08-20T19:23:58.454Z,21.02
2022-08-20T19:29:04.130Z,20.88
2022-08-20T19:34:20.402Z,20.71
2022-08-20T19:39:26.027Z,20.70
2022-08-20T19:44:34.954Z,20.62
2022-08-20T19:49:44.824Z,20.46
2022-08-20T19:54:51.237Z,20.34
2022-08-20T19:59:55.193Z,20.30
2022-08-20T20:04:59.266Z,20.22
2022-08-20T20:10:02.199Z,20.21
2022-08-20T20:15:07.647Z,20.14
2022-08-20T20:20:24.878Z,20.05
2022-08-20T20:25:39.567Z,19.86
2022-08-20T20:30:44.700Z,19.85
2022-08-20T20:35:48.885Z,19.63
2022-08-20T20:40:53.150Z,19.61
2022-08-20T20:46:03.450Z,19.44
2022-08-20T20:51:16.393Z,19.44
2022-08-20T20:56:38.190Z,19.45
2022-08-20T21:01:49.879Z,19.28
2022-08-20T21:06:56.401Z,19.05
2022-08-20T21:11:59.117Z,19.13
2022-08-20T21:17:03.673Z,19.22
2022-08-20T21:22:09.337Z,19.11
2022-08-20T21:27:12.671Z,19.05
2022-08-20T21:32:16.286Z,18.90
2022-08-20T21:37:20.342Z,18.80
2022-08-20T21:42:29.106Z,18.73
2022-08-20T21:47:32.542Z,18.76
2022-08-20T21:52:37.887Z,18.45
2022-08-20T21:57:48.431Z,18.55
2022-08-20T22:02:51.236Z,18.56
2022-08-20T22:07:55.317Z,18.50
2022-08-20T22:12:58.177Z,18.44
2022-08-20T22:18:01.084Z,18.39
2022-08-20T22:23:06.333Z,18.28
2022-08-20T22:28:09.438Z,18.39
2022-08-20T22:33:14.622Z,18.35
2022-08-20T22:38:19.330Z,18.16
2022-08-20T22:43:23.171Z,18.03
2022-08-20T22:48:26.225Z,18.10
2022-08-20T22:53:30.714Z,18.05
2022-08-20T22:58:33.399Z,17.86
2022-08-20T23:03:39.379Z,17.87
2022-08-20T23:08:45.406Z,17.79
2022-08-20T23:13:48.745Z,17.71
2022-08-20T23:18:51.489Z,17.58
2022-08-20T23:23:55.713Z,17.60
2022-08-20T23:28:58.409Z,17.52
2022-08-20T23:34:01.090Z,17.42
2022-08-20T23:39:07.365Z,17.45
2022-08-20T23:44:25.250Z,17.46
2022-08-20T23:49:30.550Z,17.23
2022-08-20T23:54:34.592Z,17.26
2022-08-20T23:59:37.520Z,17.12
